sensor_id;sensor_type;location;lat;lon;timestamp;pressure;altitude;pressure_sealevel;temperature;humidity
62374;BME280;48409;49.030;1.820;2023-02-11T00:01:58;102996.63;;;4.87;61.90
62374;BME280;48409;49.030;1.820;2023-02-11T00:04:25;102997.47;;;4.84;61.67
62374;BME280;48409;49.030;1.820;2023-02-11T00:06:50;102994.84;;;4.84;61.60
62374;BME280;48409;49.030;1.820;2023-02-11T00:09:16;102994.81;;;4.81;61.83
62374;BME280;48409;49.030;1.820;2023-02-11T00:11:41;103000.03;;;4.79;61.82
62374;BME280;48409;49.030;1.820;2023-02-11T00:14:09;102997.38;;;4.78;61.68
62374;BME280;48409;49.030;1.820;2023-02-11T00:16:34;102997.34;;;4.75;61.86
62374;BME280;48409;49.030;1.820;2023-02-11T00:19:02;102991.22;;;4.73;61.81
62374;BME280;48409;49.030;1.820;2023-02-11T00:21:29;102990.31;;;4.70;61.72
62374;BME280;48409;49.030;1.820;2023-02-11T00:23:55;102987.66;;;4.69;61.80
62374;BME280;48409;49.030;1.820;2023-02-11T00:26:23;102988.53;;;4.68;61.86
62374;BME280;48409;49.030;1.820;2023-02-11T00:28:50;102984.16;;;4.67;61.80
62374;BME280;48409;49.030;1.820;2023-02-11T00:31:17;102982.41;;;4.66;61.83
62374;BME280;48409;49.030;1.820;2023-02-11T00:33:43;102985.00;;;4.64;61.86
62374;BME280;48409;49.030;1.820;2023-02-11T00:36:18;102981.47;;;4.62;61.86
62374;BME280;48409;49.030;1.820;2023-02-11T00:38:44;102981.41;;;4.59;61.77
62374;BME280;48409;49.030;1.820;2023-02-11T00:41:11;102974.44;;;4.58;61.91
62374;BME280;48409;49.030;1.820;2023-02-11T00:43:37;102984.03;;;4.57;61.60
62374;BME280;48409;49.030;1.820;2023-02-11T00:46:03;102970.06;;;4.55;61.84
62374;BME280;48409;49.030;1.820;2023-02-11T00:48:28;102972.63;;;4.54;61.85
62374;BME280;48409;49.030;1.820;2023-02-11T00:50:54;102971.75;;;4.52;61.64
62374;BME280;48409;49.030;1.820;2023-02-11T00:53:19;102965.59;;;4.50;61.82
62374;BME280;48409;49.030;1.820;2023-02-11T00:55:45;102963.84;;;4.49;61.74
62374;BME280;48409;49.030;1.820;2023-02-11T00:58:10;102971.66;;;4.47;61.66
62374;BME280;48409;49.030;1.820;2023-02-11T01:00:36;102973.41;;;4.47;61.86
62374;BME280;48409;49.030;1.820;2023-02-11T01:03:01;102970.75;;;4.43;61.69
62374;BME280;48409;49.030;1.820;2023-02-11T01:05:27;102970.75;;;4.43;61.81
62374;BME280;48409;49.030;1.820;2023-02-11T01:07:53;102967.22;;;4.41;61.83
62374;BME280;48409;49.030;1.820;2023-02-11T01:10:18;102964.59;;;4.40;61.68
62374;BME280;48409;49.030;1.820;2023-02-11T01:12:44;102965.44;;;4.39;61.74
62374;BME280;48409;49.030;1.820;2023-02-11T01:15:13;102965.44;;;4.37;61.68
62374;BME280;48409;49.030;1.820;2023-02-11T01:17:39;102968.88;;;4.36;61.89
62374;BME280;48409;49.030;1.820;2023-02-11T01:20:07;102970.59;;;4.34;61.54
62374;BME280;48409;49.030;1.820;2023-02-11T01:22:33;102970.59;;;4.34;61.89
62374;BME280;48409;49.030;1.820;2023-02-11T01:25:04;102974.88;;;4.32;61.67
62374;BME280;48409;49.030;1.820;2023-02-11T01:27:29;102973.13;;;4.31;61.74
62374;BME280;48409;49.030;1.820;2023-02-11T01:29:55;102977.50;;;4.30;61.85
62374;BME280;48409;49.030;1.820;2023-02-11T01:32:20;102972.25;;;4.29;61.82
62374;BME280;48409;49.030;1.820;2023-02-11T01:34:46;102968.72;;;4.27;61.89
62374;BME280;48409;49.030;1.820;2023-02-11T01:37:12;102973.06;;;4.28;61.78
62374;BME280;48409;49.030;1.820;2023-02-11T01:39:37;102966.97;;;4.26;61.78
62374;BME280;48409;49.030;1.820;2023-02-11T01:42:03;102973.91;;;4.24;61.86
62374;BME280;48409;49.030;1.820;2023-02-11T01:44:36;102974.75;;;4.24;61.87
62374;BME280;48409;49.030;1.820;2023-02-11T01:47:02;102973.88;;;4.22;61.66
62374;BME280;48409;49.030;1.820;2023-02-11T01:49:32;102965.16;;;4.22;61.53
62374;BME280;48409;49.030;1.820;2023-02-11T01:52:10;102967.78;;;4.22;61.81
62374;BME280;48409;49.030;1.820;2023-02-11T01:54:41;102971.22;;;4.21;61.88
62374;BME280;48409;49.030;1.820;2023-02-11T01:57:29;102971.22;;;4.21;61.91
62374;BME280;48409;49.030;1.820;2023-02-11T02:00:07;102970.31;;;4.18;61.86
62374;BME280;48409;49.030;1.820;2023-02-11T02:05:42;102972.03;;;4.16;61.83
62374;BME280;48409;49.030;1.820;2023-02-11T02:08:34;102970.28;;;4.15;61.69
62374;BME280;48409;49.030;1.820;2023-02-11T02:11:03;102962.47;;;4.15;61.81
62374;BME280;48409;49.030;1.820;2023-02-11T02:13:32;102958.06;;;4.14;62.08
62374;BME280;48409;49.030;1.820;2023-02-11T02:16:03;102952.00;;;4.14;61.76
62374;BME280;48409;49.030;1.820;2023-02-11T02:18:51;102955.50;;;4.16;61.83
62374;BME280;48409;49.030;1.820;2023-02-11T02:41:29;102916.19;;;4.05;61.71
62374;BME280;48409;49.030;1.820;2023-02-11T02:43:56;102927.47;;;4.04;61.84
62374;BME280;48409;49.030;1.820;2023-02-11T02:46:28;102927.44;;;4.02;62.11
62374;BME280;48409;49.030;1.820;2023-02-11T02:48:55;102923.13;;;4.03;61.99
62374;BME280;48409;49.030;1.820;2023-02-11T02:51:56;102933.53;;;4.03;61.91
62374;BME280;48409;49.030;1.820;2023-02-11T02:57:31;102924.78;;;4.01;61.93
62374;BME280;48409;49.030;1.820;2023-02-11T03:00:41;102920.41;;;3.98;61.83
62374;BME280;48409;49.030;1.820;2023-02-11T03:03:15;102916.09;;;3.99;62.02
62374;BME280;48409;49.030;1.820;2023-02-11T03:08:31;102915.16;;;3.97;61.89
62374;BME280;48409;49.030;1.820;2023-02-11T03:10:59;102917.78;;;3.95;61.99
62374;BME280;48409;49.030;1.820;2023-02-11T03:13:29;102917.75;;;3.94;62.04
62374;BME280;48409;49.030;1.820;2023-02-11T03:16:01;102916.03;;;3.96;61.99
62374;BME280;48409;49.030;1.820;2023-02-11T03:18:30;102902.94;;;3.94;61.82
62374;BME280;48409;49.030;1.820;2023-02-11T03:20:59;102902.09;;;3.94;61.82
62374;BME280;48409;49.030;1.820;2023-02-11T03:23:39;102903.81;;;3.93;62.19
62374;BME280;48409;49.030;1.820;2023-02-11T03:26:15;102905.53;;;3.92;61.68
62374;BME280;48409;49.030;1.820;2023-02-11T03:28:54;102901.16;;;3.91;61.74
62374;BME280;48409;49.030;1.820;2023-02-11T03:31:40;102899.41;;;3.90;61.96
62374;BME280;48409;49.030;1.820;2023-02-11T03:34:16;102898.53;;;3.90;61.80
62374;BME280;48409;49.030;1.820;2023-02-11T03:37:02;102898.53;;;3.90;61.76
62374;BME280;48409;49.030;1.820;2023-02-11T03:39:34;102906.34;;;3.88;61.98
62374;BME280;48409;49.030;1.820;2023-02-11T03:42:03;102895.00;;;3.86;61.83
62374;BME280;48409;49.030;1.820;2023-02-11T03:44:38;102896.72;;;3.86;61.81
62374;BME280;48409;49.030;1.820;2023-02-11T03:47:08;102896.72;;;3.86;61.94
62374;BME280;48409;49.030;1.820;2023-02-11T03:49:35;102901.03;;;3.84;61.83
62374;BME280;48409;49.030;1.820;2023-02-11T03:52:04;102902.75;;;3.83;61.96
62374;BME280;48409;49.030;1.820;2023-02-11T03:54:31;102901.94;;;3.84;61.75
62374;BME280;48409;49.030;1.820;2023-02-11T03:56:59;102901.94;;;3.84;61.73
62374;BME280;48409;49.030;1.820;2023-02-11T03:59:25;102905.38;;;3.83;61.64
62374;BME280;48409;49.030;1.820;2023-02-11T04:01:51;102910.59;;;3.83;62.13
62374;BME280;48409;49.030;1.820;2023-02-11T04:04:17;102905.38;;;3.83;62.08
62374;BME280;48409;49.030;1.820;2023-02-11T04:06:42;102903.63;;;3.82;62.01
62374;BME280;48409;49.030;1.820;2023-02-11T04:09:10;102901.00;;;3.82;62.02
62374;BME280;48409;49.030;1.820;2023-02-11T04:11:36;102903.63;;;3.82;61.90
62374;BME280;48409;49.030;1.820;2023-02-11T04:14:02;102894.91;;;3.80;62.02
62374;BME280;48409;49.030;1.820;2023-02-11T04:16:27;102898.34;;;3.79;61.96
62374;BME280;48409;49.030;1.820;2023-02-11T04:18:55;102901.81;;;3.78;61.97
62374;BME280;48409;49.030;1.820;2023-02-11T04:21:20;102899.19;;;3.78;61.89
62374;BME280;48409;49.030;1.820;2023-02-11T04:23:46;102904.41;;;3.78;61.79
62374;BME280;48409;49.030;1.820;2023-02-11T04:26:11;102897.41;;;3.75;61.96
62374;BME280;48409;49.030;1.820;2023-02-11T04:28:36;102896.53;;;3.75;61.93
62374;BME280;48409;49.030;1.820;2023-02-11T04:31:02;102898.25;;;3.73;61.83
62374;BME280;48409;49.030;1.820;2023-02-11T04:33:27;102901.72;;;3.72;61.86
62374;BME280;48409;49.030;1.820;2023-02-11T04:35:53;102902.56;;;3.71;61.78
62374;BME280;48409;49.030;1.820;2023-02-11T04:38:18;102898.19;;;3.70;61.79
62374;BME280;48409;49.030;1.820;2023-02-11T04:40:43;102901.66;;;3.69;61.73
62374;BME280;48409;49.030;1.820;2023-02-11T04:43:09;102903.34;;;3.67;61.83
62374;BME280;48409;49.030;1.820;2023-02-11T04:45:34;102917.22;;;3.65;61.67
62374;BME280;48409;49.030;1.820;2023-02-11T04:48:03;102912.84;;;3.64;61.74
62374;BME280;48409;49.030;1.820;2023-02-11T04:50:28;102918.94;;;3.63;61.64
62374;BME280;48409;49.030;1.820;2023-02-11T04:52:54;102918.94;;;3.63;61.87
62374;BME280;48409;49.030;1.820;2023-02-11T04:55:20;102920.63;;;3.61;61.76
62374;BME280;48409;49.030;1.820;2023-02-11T04:57:45;102920.63;;;3.60;61.89
62374;BME280;48409;49.030;1.820;2023-02-11T05:00:11;102916.22;;;3.59;61.57
62374;BME280;48409;49.030;1.820;2023-02-11T05:02:37;102914.47;;;3.58;61.98
62374;BME280;48409;49.030;1.820;2023-02-11T05:05:03;102907.50;;;3.57;61.70
62374;BME280;48409;49.030;1.820;2023-02-11T05:07:28;102908.41;;;3.57;61.73
62374;BME280;48409;49.030;1.820;2023-02-11T05:09:54;102909.22;;;3.56;61.70
62374;BME280;48409;49.030;1.820;2023-02-11T05:12:19;102898.78;;;3.55;61.98
62374;BME280;48409;49.030;1.820;2023-02-11T05:14:44;102901.38;;;3.53;61.80
62374;BME280;48409;49.030;1.820;2023-02-11T05:17:10;102906.59;;;3.53;61.84
62374;BME280;48409;49.030;1.820;2023-02-11T05:19:35;102898.72;;;3.51;61.74
62374;BME280;48409;49.030;1.820;2023-02-11T05:22:00;102895.25;;;3.51;61.83
62374;BME280;48409;49.030;1.820;2023-02-11T05:24:26;102903.06;;;3.51;61.69
62374;BME280;48409;49.030;1.820;2023-02-11T05:26:51;102909.13;;;3.50;61.90
62374;BME280;48409;49.030;1.820;2023-02-11T05:29:17;102908.19;;;3.48;61.82
62374;BME280;48409;49.030;1.820;2023-02-11T05:31:42;102904.78;;;3.49;61.84
62374;BME280;48409;49.030;1.820;2023-02-11T05:34:08;102903.00;;;3.48;61.75
62374;BME280;48409;49.030;1.820;2023-02-11T05:36:33;102897.78;;;3.48;61.93
62374;BME280;48409;49.030;1.820;2023-02-11T05:38:59;102895.16;;;3.48;61.96
62374;BME280;48409;49.030;1.820;2023-02-11T05:41:24;102896.03;;;3.47;61.69
62374;BME280;48409;49.030;1.820;2023-02-11T05:43:49;102897.78;;;3.46;61.94
62374;BME280;48409;49.030;1.820;2023-02-11T05:46:16;102895.16;;;3.46;61.89
62374;BME280;48409;49.030;1.820;2023-02-11T05:48:41;102892.56;;;3.48;62.04
62374;BME280;48409;49.030;1.820;2023-02-11T05:51:07;102892.56;;;3.48;61.99
62374;BME280;48409;49.030;1.820;2023-02-11T05:53:32;102889.97;;;3.48;61.70
62374;BME280;48409;49.030;1.820;2023-02-11T05:55:58;102889.13;;;3.49;61.79
62374;BME280;48409;49.030;1.820;2023-02-11T05:58:23;102896.09;;;3.50;61.90
62374;BME280;48409;49.030;1.820;2023-02-11T06:00:48;102883.91;;;3.49;61.97
62374;BME280;48409;49.030;1.820;2023-02-11T06:03:14;102881.31;;;3.49;61.90
62374;BME280;48409;49.030;1.820;2023-02-11T06:05:41;102890.88;;;3.50;61.61
62374;BME280;48409;49.030;1.820;2023-02-11T06:08:07;102889.13;;;3.49;62.00
62374;BME280;48409;49.030;1.820;2023-02-11T06:10:33;102890.88;;;3.50;61.96
62374;BME280;48409;49.030;1.820;2023-02-11T06:12:58;102889.13;;;3.49;61.95
62374;BME280;48409;49.030;1.820;2023-02-11T06:15:23;102894.34;;;3.49;61.82
62374;BME280;48409;49.030;1.820;2023-02-11T06:17:49;102886.50;;;3.47;61.97
62374;BME280;48409;49.030;1.820;2023-02-11T06:20:14;102892.56;;;3.48;61.92
62374;BME280;48409;49.030;1.820;2023-02-11T06:22:40;102893.41;;;3.47;61.58
62374;BME280;48409;49.030;1.820;2023-02-11T06:25:05;102889.06;;;3.46;61.95
62374;BME280;48409;49.030;1.820;2023-02-11T06:27:31;102888.19;;;3.45;61.87
62374;BME280;48409;49.030;1.820;2023-02-11T06:29:56;102885.53;;;3.44;62.00
62374;BME280;48409;49.030;1.820;2023-02-11T06:32:22;102886.44;;;3.44;61.97
62374;BME280;48409;49.030;1.820;2023-02-11T06:34:47;102887.28;;;3.43;61.89
62374;BME280;48409;49.030;1.820;2023-02-11T06:37:13;102894.22;;;3.43;61.98
62374;BME280;48409;49.030;1.820;2023-02-11T06:39:38;102896.81;;;3.43;61.79
62374;BME280;48409;49.030;1.820;2023-02-11T06:42:03;102902.00;;;3.41;61.92
62374;BME280;48409;49.030;1.820;2023-02-11T06:44:29;102907.19;;;3.39;61.97
62374;BME280;48409;49.030;1.820;2023-02-11T06:46:54;102905.41;;;3.38;61.75
62374;BME280;48409;49.030;1.820;2023-02-11T06:49:20;102918.44;;;3.38;62.11
62374;BME280;48409;49.030;1.820;2023-02-11T06:51:45;102920.22;;;3.39;61.92
62374;BME280;48409;49.030;1.820;2023-02-11T06:54:11;102925.44;;;3.39;62.04
62374;BME280;48409;49.030;1.820;2023-02-11T06:56:39;102919.28;;;3.37;61.84
62374;BME280;48409;49.030;1.820;2023-02-11T06:59:05;102922.84;;;3.39;62.09
62374;BME280;48409;49.030;1.820;2023-02-11T07:01:30;102923.72;;;3.42;61.78
62374;BME280;48409;49.030;1.820;2023-02-11T07:03:56;102928.94;;;3.42;61.80
62374;BME280;48409;49.030;1.820;2023-02-11T07:06:23;102929.84;;;3.44;61.90
62374;BME280;48409;49.030;1.820;2023-02-11T07:08:51;102934.22;;;3.45;62.06
62374;BME280;48409;49.030;1.820;2023-02-11T07:11:19;102935.97;;;3.46;61.98
62374;BME280;48409;49.030;1.820;2023-02-11T07:13:46;102933.41;;;3.47;62.12
62374;BME280;48409;49.030;1.820;2023-02-11T07:16:14;102936.03;;;3.49;62.19
62374;BME280;48409;49.030;1.820;2023-02-11T07:18:40;102943.00;;;3.50;61.85
62374;BME280;48409;49.030;1.820;2023-02-11T07:21:07;102949.97;;;3.51;61.93
62374;BME280;48409;49.030;1.820;2023-02-11T07:23:33;102954.31;;;3.52;62.00
62374;BME280;48409;49.030;1.820;2023-02-11T07:26:19;102950.03;;;3.54;62.15
62374;BME280;48409;49.030;1.820;2023-02-11T07:28:47;102948.31;;;3.56;61.88
62374;BME280;48409;49.030;1.820;2023-02-11T07:31:15;102953.56;;;3.58;62.05
62374;BME280;48409;49.030;1.820;2023-02-11T07:33:41;102946.63;;;3.58;62.05
62374;BME280;48409;49.030;1.820;2023-02-11T07:36:07;102948.44;;;3.61;61.99
62374;BME280;48409;49.030;1.820;2023-02-11T07:38:34;102953.69;;;3.62;62.07
62374;BME280;48409;49.030;1.820;2023-02-11T07:41:01;102955.44;;;3.63;62.27
62374;BME280;48409;49.030;1.820;2023-02-11T07:43:26;102955.47;;;3.65;62.03
62374;BME280;48409;49.030;1.820;2023-02-11T07:45:52;102950.28;;;3.67;62.25
62374;BME280;48409;49.030;1.820;2023-02-11T07:48:17;102945.09;;;3.70;62.38
62374;BME280;48409;49.030;1.820;2023-02-11T07:50:43;102952.09;;;3.71;62.02
62374;BME280;48409;49.030;1.820;2023-02-11T07:53:08;102958.19;;;3.73;62.19
62374;BME280;48409;49.030;1.820;2023-02-11T07:55:33;102948.66;;;3.75;62.23
62374;BME280;48409;49.030;1.820;2023-02-11T07:57:59;102946.97;;;3.77;62.14
62374;BME280;48409;49.030;1.820;2023-02-11T08:00:24;102943.53;;;3.78;62.14
62374;BME280;48409;49.030;1.820;2023-02-11T08:02:50;102957.47;;;3.80;62.15
62374;BME280;48409;49.030;1.820;2023-02-11T08:05:15;102952.31;;;3.83;62.23
62374;BME280;48409;49.030;1.820;2023-02-11T08:07:40;102948.88;;;3.84;62.30
62374;BME280;48409;49.030;1.820;2023-02-11T08:10:06;102945.47;;;3.88;62.27
62374;BME280;48409;49.030;1.820;2023-02-11T08:12:31;102946.31;;;3.89;62.44
62374;BME280;48409;49.030;1.820;2023-02-11T08:14:57;102943.75;;;3.90;62.30
62374;BME280;48409;49.030;1.820;2023-02-11T08:17:22;102949.91;;;3.94;62.36
62374;BME280;48409;49.030;1.820;2023-02-11T08:19:48;102954.28;;;3.97;62.47
62374;BME280;48409;49.030;1.820;2023-02-11T08:22:13;102947.38;;;3.99;62.35
62374;BME280;48409;49.030;1.820;2023-02-11T08:24:38;102956.09;;;4.01;62.23
62374;BME280;48409;49.030;1.820;2023-02-11T08:27:04;102955.28;;;4.03;62.40
62374;BME280;48409;49.030;1.820;2023-02-11T08:29:29;102952.69;;;4.05;62.25
62374;BME280;48409;49.030;1.820;2023-02-11T08:31:55;102955.38;;;4.08;62.38
62374;BME280;48409;49.030;1.820;2023-02-11T08:34:20;102952.78;;;4.10;62.38
62374;BME280;48409;49.030;1.820;2023-02-11T08:36:46;102947.59;;;4.11;62.24
62374;BME280;48409;49.030;1.820;2023-02-11T08:39:15;102948.50;;;4.13;62.55
62374;BME280;48409;49.030;1.820;2023-02-11T08:41:41;102959.84;;;4.15;62.40
62374;BME280;48409;49.030;1.820;2023-02-11T08:44:06;102954.66;;;4.18;62.56
62374;BME280;48409;49.030;1.820;2023-02-11T08:46:32;102957.31;;;4.20;62.49
62374;BME280;48409;49.030;1.820;2023-02-11T08:48:57;102957.38;;;4.23;62.50
62374;BME280;48409;49.030;1.820;2023-02-11T08:51:24;102953.88;;;4.24;62.44
62374;BME280;48409;49.030;1.820;2023-02-11T08:53:52;102948.72;;;4.27;62.60
62374;BME280;48409;49.030;1.820;2023-02-11T08:56:19;102952.22;;;4.29;62.33
62374;BME280;48409;49.030;1.820;2023-02-11T08:58:44;102954.91;;;4.33;62.37
62374;BME280;48409;49.030;1.820;2023-02-11T09:01:12;102957.56;;;4.36;62.88
62374;BME280;48409;49.030;1.820;2023-02-11T09:03:38;102950.63;;;4.38;62.55
62374;BME280;48409;49.030;1.820;2023-02-11T09:06:06;102949.81;;;4.40;62.53
62374;BME280;48409;49.030;1.820;2023-02-11T09:08:36;102957.72;;;4.45;62.61
62374;BME280;48409;49.030;1.820;2023-02-11T09:11:02;102949.06;;;4.48;62.68
62374;BME280;48409;49.030;1.820;2023-02-11T09:13:29;102944.72;;;4.50;62.71
62374;BME280;48409;49.030;1.820;2023-02-11T09:15:54;102950.00;;;4.53;62.81
62374;BME280;48409;49.030;1.820;2023-02-11T09:18:20;102950.91;;;4.56;62.67
62374;BME280;48409;49.030;1.820;2023-02-11T09:20:45;102957.06;;;4.59;62.96
62374;BME280;48409;49.030;1.820;2023-02-11T09:23:10;102960.59;;;4.62;62.76
62374;BME280;48409;49.030;1.820;2023-02-11T09:25:40;102960.63;;;4.65;62.79
62374;BME280;48409;49.030;1.820;2023-02-11T09:28:06;102961.56;;;4.69;62.76
62374;BME280;48409;49.030;1.820;2023-02-11T09:30:32;102965.09;;;4.71;62.87
62374;BME280;48409;49.030;1.820;2023-02-11T09:32:57;102966.00;;;4.75;63.10
62374;BME280;48409;49.030;1.820;2023-02-11T09:35:23;102973.03;;;4.79;62.98
62374;BME280;48409;49.030;1.820;2023-02-11T09:37:48;102978.31;;;4.82;62.78
62374;BME280;48409;49.030;1.820;2023-02-11T09:40:15;102978.31;;;4.85;62.77
62374;BME280;48409;49.030;1.820;2023-02-11T09:45:13;102978.44;;;4.91;62.84
62374;BME280;48409;49.030;1.820;2023-02-11T09:47:56;102976.72;;;4.95;63.12
62374;BME280;48409;49.030;1.820;2023-02-11T09:50:37;102975.94;;;5.01;63.08
62374;BME280;48409;49.030;1.820;2023-02-11T09:53:25;102981.22;;;5.04;63.33
62374;BME280;48409;49.030;1.820;2023-02-11T09:55:54;102983.84;;;5.07;63.09
62374;BME280;48409;49.030;1.820;2023-02-11T10:01:07;102990.94;;;5.14;63.01
62374;BME280;48409;49.030;1.820;2023-02-11T10:06:42;102982.34;;;5.25;63.27
62374;BME280;48409;49.030;1.820;2023-02-11T10:15:12;102990.31;;;5.34;63.33
62374;BME280;48409;49.030;1.820;2023-02-11T10:18:07;102995.59;;;5.37;63.36
62374;BME280;48409;49.030;1.820;2023-02-11T10:23:26;103002.69;;;5.46;63.39
62374;BME280;48409;49.030;1.820;2023-02-11T10:25:54;102998.34;;;5.49;63.45
62374;BME280;48409;49.030;1.820;2023-02-11T10:28:29;103005.38;;;5.54;63.58
62374;BME280;48409;49.030;1.820;2023-02-11T10:33:27;103013.34;;;5.65;63.42
62374;BME280;48409;49.030;1.820;2023-02-11T10:35:54;103012.53;;;5.69;63.33
62374;BME280;48409;49.030;1.820;2023-02-11T10:38:19;103013.47;;;5.74;63.34
62374;BME280;48409;49.030;1.820;2023-02-11T10:40:45;103010.88;;;5.79;63.71
62374;BME280;48409;49.030;1.820;2023-02-11T10:43:15;103010.97;;;5.85;63.61
62374;BME280;48409;49.030;1.820;2023-02-11T10:45:46;103011.00;;;5.88;63.76
62374;BME280;48409;49.030;1.820;2023-02-11T10:53:35;103015.53;;;6.03;63.89
62374;BME280;48409;49.030;1.820;2023-02-11T10:56:01;103007.75;;;6.08;63.84
62374;BME280;48409;49.030;1.820;2023-02-11T10:58:35;103004.31;;;6.12;63.89
62374;BME280;48409;49.030;1.820;2023-02-11T11:01:04;103006.97;;;6.18;63.99
62374;BME280;48409;49.030;1.820;2023-02-11T11:03:35;103000.91;;;6.24;63.97
62374;BME280;48409;49.030;1.820;2023-02-11T11:06:05;103002.72;;;6.30;63.89
62374;BME280;48409;49.030;1.820;2023-02-11T11:08:52;103006.25;;;6.35;63.83
62374;BME280;48409;49.030;1.820;2023-02-11T11:11:23;103006.28;;;6.41;63.93
62374;BME280;48409;49.030;1.820;2023-02-11T11:16:18;103001.16;;;6.53;64.06
62374;BME280;48409;49.030;1.820;2023-02-11T11:18:46;102989.00;;;6.62;64.16
62374;BME280;48409;49.030;1.820;2023-02-11T11:21:30;102992.56;;;6.70;64.31
62374;BME280;48409;49.030;1.820;2023-02-11T11:23:59;102992.59;;;6.78;64.25
62374;BME280;48409;49.030;1.820;2023-02-11T11:26:38;102991.78;;;6.85;64.42
62374;BME280;48409;49.030;1.820;2023-02-11T11:30:00;102978.75;;;6.96;64.67
62374;BME280;48409;49.030;1.820;2023-02-11T11:32:32;102977.09;;;7.06;64.42
62374;BME280;48409;49.030;1.820;2023-02-11T11:35:00;102969.28;;;7.17;64.65
62374;BME280;48409;49.030;1.820;2023-02-11T11:37:28;102962.28;;;7.25;64.85
62374;BME280;48409;49.030;1.820;2023-02-11T11:40:10;102967.59;;;7.39;65.05
62374;BME280;48409;49.030;1.820;2023-02-11T11:43:00;102965.03;;;7.50;65.00
62374;BME280;48409;49.030;1.820;2023-02-11T11:45:27;102965.06;;;7.63;65.09
62374;BME280;48409;49.030;1.820;2023-02-11T11:48:18;102958.97;;;7.75;65.11
62374;BME280;48409;49.030;1.820;2023-02-11T11:51:03;102966.00;;;7.90;65.30
62374;BME280;48409;49.030;1.820;2023-02-11T11:58:24;102946.75;;;8.22;65.39
62374;BME280;48409;49.030;1.820;2023-02-11T12:11:33;102947.66;;;8.68;65.42
62374;BME280;48409;49.030;1.820;2023-02-11T12:14:05;102951.09;;;8.76;65.65
62374;BME280;48409;49.030;1.820;2023-02-11T12:16:51;102941.47;;;8.84;65.66
62374;BME280;48409;49.030;1.820;2023-02-11T12:22:33;102932.66;;;9.03;65.81
62374;BME280;48409;49.030;1.820;2023-02-11T12:25:06;102932.63;;;9.13;65.90
62374;BME280;48409;49.030;1.820;2023-02-11T12:27:47;102931.69;;;9.24;65.84
62374;BME280;48409;49.030;1.820;2023-02-11T12:43:37;102922.59;;;9.81;65.90
62374;BME280;48409;49.030;1.820;2023-02-11T12:46:32;102926.94;;;9.88;65.85
62374;BME280;48409;49.030;1.820;2023-02-11T13:04:53;102917.97;;;10.10;65.42
62374;BME280;48409;49.030;1.820;2023-02-11T13:07:32;102908.34;;;10.10;65.39
62374;BME280;48409;49.030;1.820;2023-02-11T13:12:44;102910.06;;;10.14;65.34
62374;BME280;48409;49.030;1.820;2023-02-11T13:15:29;102905.66;;;10.15;65.29
62374;BME280;48409;49.030;1.820;2023-02-11T13:20:35;102906.50;;;10.18;65.51
62374;BME280;48409;49.030;1.820;2023-02-11T13:25:52;102892.44;;;10.23;65.42
62374;BME280;48409;49.030;1.820;2023-02-11T13:28:39;102898.53;;;10.25;65.36
62374;BME280;48409;49.030;1.820;2023-02-11T13:31:08;102895.91;;;10.25;65.24
62374;BME280;48409;49.030;1.820;2023-02-11T13:33:38;102889.78;;;10.23;65.32
62374;BME280;48409;49.030;1.820;2023-02-11T13:38:33;102888.91;;;10.24;65.14
62374;BME280;48409;49.030;1.820;2023-02-11T13:41:05;102885.38;;;10.25;65.11
62374;BME280;48409;49.030;1.820;2023-02-11T13:43:37;102889.75;;;10.24;65.13
62374;BME280;48409;49.030;1.820;2023-02-11T13:46:10;102886.28;;;10.24;65.10
62374;BME280;48409;49.030;1.820;2023-02-11T13:48:48;102881.91;;;10.23;64.83
62374;BME280;48409;49.030;1.820;2023-02-11T13:51:17;102881.91;;;10.23;64.91
62374;BME280;48409;49.030;1.820;2023-02-11T13:53:49;102878.38;;;10.21;64.89
62374;BME280;48409;49.030;1.820;2023-02-11T13:56:35;102870.47;;;10.21;64.86
62374;BME280;48409;49.030;1.820;2023-02-11T13:59:04;102874.88;;;10.20;64.90
62374;BME280;48409;49.030;1.820;2023-02-11T14:04:36;102871.41;;;10.16;64.66
62374;BME280;48409;49.030;1.820;2023-02-11T14:11:02;102862.66;;;10.13;64.80
62374;BME280;48409;49.030;1.820;2023-02-11T14:23:52;102859.16;;;10.12;64.87
62374;BME280;48409;49.030;1.820;2023-02-11T14:28:47;102867.91;;;10.14;64.83
62374;BME280;48409;49.030;1.820;2023-02-11T14:41:50;102864.31;;;10.22;64.88
62374;BME280;48409;49.030;1.820;2023-02-11T14:44:22;102867.84;;;10.22;64.79
62374;BME280;48409;49.030;1.820;2023-02-11T14:46:50;102861.69;;;10.23;65.01
62374;BME280;48409;49.030;1.820;2023-02-11T14:49:30;102861.66;;;10.25;64.81
62374;BME280;48409;49.030;1.820;2023-02-11T14:52:31;102860.78;;;10.26;64.94
62374;BME280;48409;49.030;1.820;2023-02-11T14:55:06;102866.03;;;10.26;64.88
62374;BME280;48409;49.030;1.820;2023-02-11T14:57:37;102866.03;;;10.26;64.70
62374;BME280;48409;49.030;1.820;2023-02-11T15:00:15;102860.78;;;10.26;64.84
62374;BME280;48409;49.030;1.820;2023-02-11T15:02:42;102858.16;;;10.24;64.70
62374;BME280;48409;49.030;1.820;2023-02-11T15:07:49;102857.25;;;10.27;64.51
62374;BME280;48409;49.030;1.820;2023-02-11T15:10:18;102849.34;;;10.27;64.70
62374;BME280;48409;49.030;1.820;2023-02-11T15:12:45;102846.69;;;10.27;64.65
62374;BME280;48409;49.030;1.820;2023-02-11T15:15:14;102843.22;;;10.28;64.63
62374;BME280;48409;49.030;1.820;2023-02-11T15:17:40;102841.44;;;10.27;64.58
62374;BME280;48409;49.030;1.820;2023-02-11T15:20:17;102837.94;;;10.28;64.54
62374;BME280;48409;49.030;1.820;2023-02-11T15:22:44;102843.22;;;10.28;64.65
62374;BME280;48409;49.030;1.820;2023-02-11T15:25:16;102841.44;;;10.27;64.49
62374;BME280;48409;49.030;1.820;2023-02-11T15:27:51;102851.97;;;10.27;64.58
62374;BME280;48409;49.030;1.820;2023-02-11T15:32:45;102846.69;;;10.27;64.45
62374;BME280;48409;49.030;1.820;2023-02-11T15:35:11;102850.22;;;10.29;64.52
62374;BME280;48409;49.030;1.820;2023-02-11T15:37:38;102840.59;;;10.26;64.63
62374;BME280;48409;49.030;1.820;2023-02-11T15:42:34;102847.59;;;10.27;64.38